createdAt,value
2023-05-14T00:01:32.273Z,19.10
2023-05-14T00:04:01.161Z,19.10
2023-05-14T00:06:30.622Z,19.10
2023-05-14T00:08:59.250Z,19.10
2023-05-14T00:11:28.110Z,19.10
2023-05-14T00:13:56.469Z,19.10
2023-05-14T00:16:25.265Z,19.10
2023-05-14T00:18:53.999Z,19.10
2023-05-14T00:21:22.825Z,19.10
2023-05-14T00:23:51.252Z,19.10
2023-05-14T00:26:21.693Z,19.10
2023-05-14T00:28:50.307Z,19.10
2023-05-14T00:31:19.094Z,19.10
2023-05-14T00:33:47.530Z,19.10
2023-05-14T00:36:16.535Z,19.10
2023-05-14T00:38:44.950Z,19.10
2023-05-14T00:41:13.683Z,19.10
2023-05-14T00:43:42.940Z,19.10
2023-05-14T00:46:12.705Z,19.10
2023-05-14T00:48:41.299Z,19.10
2023-05-14T00:51:10.076Z,19.10
2023-05-14T00:53:38.583Z,19.10
2023-05-14T00:56:08.462Z,19.10
2023-05-14T00:58:36.908Z,19.10
2023-05-14T01:01:05.993Z,19.10
2023-05-14T01:03:34.921Z,19.10
2023-05-14T01:06:45.158Z,19.10
2023-05-14T01:09:38.979Z,19.10
2023-05-14T01:12:20.034Z,19.00
2023-05-14T01:15:06.708Z,19.10
2023-05-14T01:18:00.048Z,19.10
2023-05-14T01:20:28.688Z,19.10
2023-05-14T01:22:57.537Z,19.00
2023-05-14T01:25:26.628Z,19.10
2023-05-14T01:28:23.496Z,19.10
2023-05-14T01:31:07.214Z,19.10
2023-05-14T01:33:36.321Z,19.10
2023-05-14T01:36:05.207Z,19.00
2023-05-14T01:38:34.384Z,19.10
2023-05-14T01:41:03.193Z,19.00
2023-05-14T01:43:32.462Z,19.00
2023-05-14T01:46:01.160Z,19.10
2023-05-14T01:48:30.488Z,19.00
2023-05-14T01:50:59.024Z,19.10
2023-05-14T01:53:27.882Z,19.00
2023-05-14T01:55:56.339Z,19.00
2023-05-14T01:58:25.170Z,19.00
2023-05-14T02:00:53.635Z,19.00
2023-05-14T02:03:22.396Z,19.00
2023-05-14T02:05:51.202Z,19.00
2023-05-14T02:08:45.010Z,19.00
2023-05-14T02:11:13.372Z,19.00
2023-05-14T02:13:42.025Z,19.00
2023-05-14T02:16:10.570Z,19.00
2023-05-14T02:18:39.363Z,19.00
2023-05-14T02:21:07.842Z,19.00
2023-05-14T02:23:41.612Z,19.00
2023-05-14T02:26:11.749Z,19.00
2023-05-14T02:28:40.749Z,19.00
2023-05-14T02:31:09.229Z,19.00
2023-05-14T02:33:38.020Z,19.00
2023-05-14T02:36:06.733Z,19.00
2023-05-14T02:38:35.455Z,19.00
2023-05-14T02:41:03.842Z,19.00
2023-05-14T02:43:33.976Z,18.90
2023-05-14T02:46:02.443Z,18.90
2023-05-14T02:48:31.180Z,18.90
2023-05-14T02:50:59.575Z,18.90
2023-05-14T02:53:28.310Z,19.00
2023-05-14T02:55:56.707Z,18.90
2023-05-14T02:58:28.279Z,19.00
2023-05-14T03:00:57.670Z,18.90
2023-05-14T03:03:27.416Z,18.90
2023-05-14T03:05:56.621Z,19.00
2023-05-14T03:08:25.329Z,19.00
2023-05-14T03:10:53.793Z,18.90
2023-05-14T03:13:22.529Z,18.90
2023-05-14T03:15:55.125Z,18.90
2023-05-14T03:18:24.510Z,19.00
2023-05-14T03:20:53.021Z,18.90
2023-05-14T03:23:21.817Z,19.00
2023-05-14T03:25:50.242Z,19.00
2023-05-14T03:28:19.206Z,18.90
2023-05-14T03:30:47.662Z,19.00
2023-05-14T03:33:16.503Z,19.00
2023-05-14T03:35:44.870Z,19.00
2023-05-14T03:38:13.576Z,18.90
2023-05-14T03:40:42.007Z,19.00
2023-05-14T03:43:11.890Z,19.00
2023-05-14T03:45:40.691Z,18.90
2023-05-14T03:48:09.585Z,18.90
2023-05-14T03:50:39.282Z,18.90
2023-05-14T03:53:08.558Z,18.90
2023-05-14T03:55:36.993Z,18.90
2023-05-14T03:58:14.364Z,18.90
2023-05-14T04:00:43.429Z,18.90
2023-05-14T04:03:13.236Z,18.90
2023-05-14T04:05:41.808Z,18.90
2023-05-14T04:08:10.792Z,18.90
2023-05-14T04:10:39.204Z,18.90
2023-05-14T04:13:08.000Z,18.90
2023-05-14T04:15:39.558Z,18.90
2023-05-14T04:18:08.438Z,18.90
2023-05-14T04:20:37.123Z,18.80
2023-05-14T04:23:05.940Z,18.80
2023-05-14T04:25:34.330Z,18.80
2023-05-14T04:28:03.060Z,18.80
2023-05-14T04:30:31.437Z,18.80
2023-05-14T04:33:00.211Z,18.70
2023-05-14T04:35:28.844Z,18.80
2023-05-14T04:37:57.570Z,18.80
2023-05-14T04:40:26.200Z,18.80
2023-05-14T04:42:55.332Z,18.80
2023-05-14T04:45:23.869Z,18.80
2023-05-14T04:47:52.720Z,18.80
2023-05-14T04:50:21.540Z,18.70
2023-05-14T04:52:50.808Z,18.70
2023-05-14T04:55:19.270Z,18.70
2023-05-14T04:57:48.309Z,18.70
2023-05-14T05:00:17.554Z,18.70
2023-05-14T05:02:46.580Z,18.70
2023-05-14T05:05:15.056Z,18.60
2023-05-14T05:07:43.843Z,18.70
2023-05-14T05:10:12.414Z,18.70
2023-05-14T05:12:41.742Z,18.60
2023-05-14T05:15:10.557Z,18.60
2023-05-14T05:17:39.793Z,18.60
2023-05-14T05:20:10.164Z,18.60
2023-05-14T05:22:39.061Z,18.60
2023-05-14T05:25:09.302Z,18.70
2023-05-14T05:27:38.011Z,18.70
2023-05-14T05:30:07.549Z,18.70
2023-05-14T05:32:36.944Z,18.80
2023-05-14T05:35:06.128Z,18.80
2023-05-14T05:37:34.918Z,18.70
2023-05-14T05:40:04.566Z,18.80
2023-05-14T05:42:33.285Z,18.70
2023-05-14T05:45:01.705Z,18.70
2023-05-14T05:47:30.620Z,18.80
2023-05-14T05:49:58.991Z,18.80
2023-05-14T05:52:27.793Z,18.80
2023-05-14T05:54:56.174Z,18.80
2023-05-14T05:57:27.423Z,18.80
2023-05-14T05:59:55.816Z,18.80
2023-05-14T06:02:25.441Z,18.80
2023-05-14T06:04:53.988Z,18.80
2023-05-14T06:07:22.374Z,18.80
2023-05-14T06:09:51.480Z,18.80
2023-05-14T06:12:19.869Z,18.80
2023-05-14T06:14:48.531Z,18.80
2023-05-14T06:17:16.943Z,18.80
2023-05-14T06:19:46.067Z,18.80
2023-05-14T06:22:15.012Z,18.80
2023-05-14T06:24:43.596Z,18.80
2023-05-14T06:27:12.016Z,18.80
2023-05-14T06:29:40.579Z,18.80
2023-05-14T06:32:09.319Z,18.80
2023-05-14T06:34:38.054Z,18.80
2023-05-14T06:37:07.248Z,18.80
2023-05-14T06:39:37.080Z,18.80
2023-05-14T06:42:05.986Z,18.80
2023-05-14T06:44:34.759Z,18.80
2023-05-14T06:47:03.084Z,18.90
2023-05-14T06:49:31.798Z,18.90
2023-05-14T06:52:00.392Z,18.90
2023-05-14T06:54:29.068Z,18.90
2023-05-14T06:56:57.726Z,18.90
2023-05-14T06:59:26.646Z,18.90
2023-05-14T07:01:55.667Z,19.00
2023-05-14T07:04:24.444Z,18.90
2023-05-14T07:06:52.982Z,18.90
2023-05-14T07:09:22.226Z,18.90
2023-05-14T07:11:50.646Z,18.90
2023-05-14T07:14:19.412Z,18.90
2023-05-14T07:16:47.913Z,18.90
2023-05-14T07:19:16.764Z,18.90
2023-05-14T07:21:45.238Z,18.90
2023-05-14T07:24:13.977Z,18.90
2023-05-14T07:26:42.414Z,18.90
2023-05-14T07:29:11.233Z,18.90
2023-05-14T07:31:39.707Z,18.90
2023-05-14T07:34:09.009Z,18.90
2023-05-14T07:36:37.422Z,18.90
2023-05-14T07:39:06.694Z,19.00
2023-05-14T07:41:35.198Z,18.90
2023-05-14T07:44:05.240Z,18.90
2023-05-14T07:46:33.669Z,18.90
2023-05-14T07:49:02.473Z,18.90
2023-05-14T07:51:34.318Z,18.90
2023-05-14T07:54:04.288Z,18.90
2023-05-14T07:56:33.264Z,19.00
2023-05-14T07:59:04.625Z,19.00
2023-05-14T08:01:33.389Z,19.00
2023-05-14T08:04:03.094Z,19.00
2023-05-14T08:06:31.757Z,19.00
2023-05-14T08:09:00.940Z,19.00
2023-05-14T08:11:29.933Z,19.00
2023-05-14T08:13:58.713Z,19.00
2023-05-14T08:16:27.314Z,19.00
2023-05-14T08:18:56.266Z,19.00
2023-05-14T08:21:24.970Z,19.00
2023-05-14T08:23:54.051Z,19.00
2023-05-14T08:26:23.098Z,19.00
2023-05-14T08:28:55.594Z,19.00
2023-05-14T08:31:25.524Z,19.00
2023-05-14T08:33:59.207Z,19.00
2023-05-14T08:36:29.215Z,19.00
2023-05-14T08:38:58.057Z,19.00
2023-05-14T08:41:26.814Z,19.00
2023-05-14T08:44:15.234Z,19.00
2023-05-14T08:46:43.758Z,19.10
2023-05-14T08:49:41.018Z,19.00
2023-05-14T08:52:12.636Z,19.10
2023-05-14T08:54:41.678Z,19.10
2023-05-14T08:57:10.780Z,19.10
2023-05-14T08:59:39.516Z,19.10
2023-05-14T09:02:08.054Z,19.10
2023-05-14T09:04:37.246Z,19.10
2023-05-14T09:07:07.460Z,19.10
2023-05-14T09:09:36.242Z,19.10
2023-05-14T09:12:05.180Z,19.10
2023-05-14T09:14:34.234Z,19.10
2023-05-14T09:17:02.807Z,19.10
2023-05-14T09:19:31.683Z,19.10
2023-05-14T09:22:00.301Z,19.20
2023-05-14T09:24:32.053Z,19.10
2023-05-14T09:27:01.778Z,19.20
2023-05-14T09:29:31.648Z,19.10
2023-05-14T09:32:00.791Z,19.10
2023-05-14T09:34:31.467Z,19.20
2023-05-14T09:37:05.688Z,19.20
2023-05-14T09:39:36.589Z,19.20
2023-05-14T09:42:05.865Z,19.20
2023-05-14T09:44:36.519Z,19.20
2023-05-14T09:47:05.317Z,19.20
2023-05-14T09:49:34.818Z,19.20
2023-05-14T09:52:03.963Z,19.20
2023-05-14T09:54:32.953Z,19.20
2023-05-14T09:57:01.520Z,19.20
2023-05-14T09:59:30.297Z,19.20
2023-05-14T10:01:58.868Z,19.20
2023-05-14T10:04:27.703Z,19.20
2023-05-14T10:06:56.333Z,19.30
2023-05-14T10:09:26.556Z,19.20
2023-05-14T10:11:55.480Z,19.20
2023-05-14T10:14:39.344Z,19.30
2023-05-14T10:17:08.007Z,19.30
2023-05-14T10:22:08.040Z,19.30
2023-05-14T10:24:38.962Z,19.30
2023-05-14T10:27:07.388Z,19.30
2023-05-14T10:29:37.746Z,19.30
2023-05-14T10:32:08.003Z,19.30
2023-05-14T10:34:41.173Z,19.30
2023-05-14T10:37:19.910Z,19.30
2023-05-14T10:40:06.405Z,19.30
2023-05-14T10:42:37.711Z,19.30
2023-05-14T10:45:08.563Z,19.30
2023-05-14T10:47:38.811Z,19.30
2023-05-14T10:50:09.454Z,19.30
2023-05-14T10:52:37.970Z,19.30
2023-05-14T10:55:10.996Z,19.30
2023-05-14T10:57:40.428Z,19.30
2023-05-14T11:00:13.205Z,19.30
2023-05-14T11:02:43.786Z,19.30
2023-05-14T11:05:16.060Z,19.30
2023-05-14T11:07:49.392Z,19.30
2023-05-14T11:10:20.314Z,19.30
2023-05-14T11:12:50.338Z,19.40
2023-05-14T11:15:23.526Z,19.40
2023-05-14T11:17:52.738Z,19.40
2023-05-14T11:20:23.324Z,19.40
2023-05-14T11:22:52.054Z,19.40
2023-05-14T11:25:21.982Z,19.40
2023-05-14T11:27:50.631Z,19.40
2023-05-14T11:30:20.425Z,19.40
2023-05-14T11:32:50.144Z,19.40
2023-05-14T11:35:19.045Z,19.40
2023-05-14T11:37:54.186Z,19.40
2023-05-14T11:40:23.126Z,19.40
2023-05-14T11:42:53.592Z,19.40
2023-05-14T11:45:30.128Z,19.40
2023-05-14T11:47:58.628Z,19.30
2023-05-14T11:50:27.699Z,19.40
2023-05-14T11:57:56.789Z,19.40
2023-05-14T12:00:26.839Z,19.40
2023-05-14T12:02:55.477Z,19.40
2023-05-14T12:05:25.053Z,19.40
2023-05-14T12:07:53.724Z,19.40
2023-05-14T12:10:22.794Z,19.40
2023-05-14T12:12:51.481Z,19.40
2023-05-14T12:15:22.081Z,19.40
2023-05-14T12:17:52.267Z,19.30
2023-05-14T12:20:21.148Z,19.20
2023-05-14T12:22:49.776Z,19.20
2023-05-14T12:25:18.732Z,19.20
2023-05-14T12:27:47.227Z,19.10
2023-05-14T12:30:21.965Z,19.10
2023-05-14T12:32:53.223Z,19.10
2023-05-14T12:35:23.112Z,19.10
2023-05-14T12:37:52.081Z,19.00
2023-05-14T12:40:21.285Z,19.00
2023-05-14T12:42:50.046Z,19.00
2023-05-14T12:45:19.713Z,19.00
2023-05-14T12:47:48.303Z,19.00
2023-05-14T12:50:17.278Z,18.90
2023-05-14T12:52:46.835Z,18.90
2023-05-14T12:55:16.137Z,18.90
2023-05-14T12:57:44.778Z,18.80
2023-05-14T13:00:15.501Z,18.80
2023-05-14T13:02:44.256Z,18.80
2023-05-14T13:05:13.381Z,18.80
2023-05-14T13:07:41.956Z,18.80
2023-05-14T13:10:11.874Z,18.80
2023-05-14T13:12:40.660Z,18.80
2023-05-14T13:15:10.265Z,18.90
2023-05-14T13:17:38.816Z,19.00
2023-05-14T13:20:08.696Z,19.00
2023-05-14T13:22:37.210Z,19.00
2023-05-14T13:25:07.707Z,19.00
2023-05-14T13:27:37.404Z,19.10
2023-05-14T13:30:07.230Z,19.10
2023-05-14T13:32:35.829Z,19.10
2023-05-14T13:35:05.337Z,19.10
2023-05-14T13:37:33.911Z,19.10
2023-05-14T13:40:04.888Z,19.10
2023-05-14T13:42:33.475Z,19.10
2023-05-14T13:45:02.424Z,19.10
2023-05-14T13:47:31.471Z,19.10
2023-05-14T13:50:00.268Z,19.10
2023-05-14T13:52:28.921Z,19.10
2023-05-14T13:54:57.995Z,19.20
2023-05-14T13:57:26.671Z,19.10
2023-05-14T13:59:55.516Z,19.20
2023-05-14T14:02:24.258Z,19.20
2023-05-14T14:04:53.262Z,19.20
2023-05-14T14:07:22.112Z,19.20
2023-05-14T14:09:51.036Z,19.20
2023-05-14T14:12:20.153Z,19.20
2023-05-14T14:14:49.175Z,19.10
2023-05-14T14:17:17.756Z,18.90
2023-05-14T14:19:46.617Z,18.90
2023-05-14T14:22:17.679Z,18.90
2023-05-14T14:24:46.727Z,19.00
2023-05-14T14:27:15.456Z,19.00
2023-05-14T14:29:45.381Z,19.00
2023-05-14T14:32:14.047Z,19.10
2023-05-14T14:34:42.931Z,19.20
2023-05-14T14:37:11.594Z,19.10
2023-05-14T14:39:40.648Z,19.10
2023-05-14T14:42:09.208Z,19.10
2023-05-14T14:44:38.073Z,19.20
2023-05-14T14:47:06.927Z,19.20
2023-05-14T14:49:36.719Z,19.20
2023-05-14T14:52:05.585Z,19.20
2023-05-14T14:54:34.427Z,19.10
2023-05-14T14:57:03.008Z,19.20
2023-05-14T14:59:31.850Z,19.20
2023-05-14T15:02:00.348Z,19.20
2023-05-14T15:04:33.008Z,19.20
2023-05-14T15:07:02.568Z,19.20
2023-05-14T15:09:32.080Z,19.20
2023-05-14T15:12:00.702Z,19.20
2023-05-14T15:14:29.589Z,19.20
2023-05-14T15:16:58.144Z,19.20
2023-05-14T15:19:27.183Z,19.20
2023-05-14T15:21:55.780Z,19.20
2023-05-14T15:24:26.349Z,19.20
2023-05-14T15:26:54.841Z,19.20
2023-05-14T15:29:23.751Z,19.20
2023-05-14T15:31:52.316Z,19.20
2023-05-14T15:34:21.547Z,19.20
2023-05-14T15:36:50.052Z,19.20
2023-05-14T15:39:18.881Z,19.20
2023-05-14T15:41:47.309Z,19.20
2023-05-14T15:44:16.073Z,19.20
2023-05-14T15:46:44.616Z,19.20
2023-05-14T15:49:13.581Z,19.20
2023-05-14T15:51:42.005Z,19.20
2023-05-14T15:54:10.855Z,19.20
2023-05-14T15:56:39.417Z,19.20
2023-05-14T15:59:08.317Z,19.20
2023-05-14T16:01:36.830Z,19.30
2023-05-14T16:04:05.780Z,19.20
2023-05-14T16:06:34.817Z,19.20
2023-05-14T16:09:04.324Z,19.20
2023-05-14T16:11:32.774Z,19.20
2023-05-14T16:14:01.528Z,19.20
2023-05-14T16:16:30.002Z,19.30
2023-05-14T16:18:59.326Z,19.20
2023-05-14T16:21:27.823Z,19.20
2023-05-14T16:23:56.934Z,19.20
2023-05-14T16:26:26.612Z,19.20
2023-05-14T16:28:55.549Z,19.20
2023-05-14T16:31:24.153Z,19.20
2023-05-14T16:33:53.410Z,19.20
2023-05-14T16:36:22.258Z,19.20
2023-05-14T16:39:06.714Z,19.20
2023-05-14T16:41:36.591Z,19.20
2023-05-14T16:44:05.540Z,19.20
2023-05-14T16:46:34.723Z,19.20
2023-05-14T16:49:03.742Z,19.20
2023-05-14T16:51:32.211Z,19.20
2023-05-14T16:54:01.137Z,19.20
2023-05-14T16:56:30.564Z,19.20
2023-05-14T16:58:59.427Z,19.20
2023-05-14T17:01:27.973Z,19.20
2023-05-14T17:03:57.062Z,19.20
2023-05-14T17:06:25.650Z,19.20
2023-05-14T17:08:54.544Z,19.20
2023-05-14T17:11:23.085Z,19.20
2023-05-14T17:14:00.423Z,19.20
2023-05-14T17:16:29.154Z,19.20
2023-05-14T17:18:57.529Z,19.20
2023-05-14T17:21:26.768Z,19.20
2023-05-14T17:23:55.294Z,19.20
2023-05-14T17:26:24.190Z,19.20
2023-05-14T17:28:52.737Z,19.20
2023-05-14T17:31:22.552Z,19.20
2023-05-14T17:33:51.149Z,19.20
2023-05-14T17:36:20.293Z,19.20
2023-05-14T17:38:48.799Z,19.20
2023-05-14T17:41:17.705Z,19.20
2023-05-14T17:43:46.258Z,19.20
2023-05-14T17:46:14.689Z,19.20
2023-05-14T17:48:43.848Z,19.20
2023-05-14T17:51:12.398Z,19.20
2023-05-14T17:53:41.362Z,19.20
2023-05-14T17:56:09.985Z,19.20
2023-05-14T17:58:38.838Z,19.20
2023-05-14T18:01:07.417Z,19.20
2023-05-14T18:03:36.434Z,19.20
2023-05-14T18:06:05.443Z,19.20
2023-05-14T18:08:34.424Z,19.10
2023-05-14T18:11:03.040Z,19.20
2023-05-14T18:13:32.048Z,19.20
2023-05-14T18:16:01.370Z,19.10
2023-05-14T18:18:30.884Z,19.10
2023-05-14T18:20:59.497Z,19.20
2023-05-14T18:23:28.444Z,19.20
2023-05-14T18:25:57.155Z,19.20
2023-05-14T18:28:27.123Z,19.20
2023-05-14T18:30:55.966Z,19.20
2023-05-14T18:33:24.965Z,19.20
2023-05-14T18:35:54.010Z,19.20
2023-05-14T18:38:22.898Z,19.20
2023-05-14T18:40:51.642Z,19.20
2023-05-14T18:43:20.678Z,19.20
2023-05-14T18:45:49.246Z,19.30
2023-05-14T18:48:18.179Z,19.30
2023-05-14T18:50:46.907Z,19.30
2023-05-14T18:53:16.394Z,19.30
2023-05-14T18:55:45.113Z,19.30
2023-05-14T18:58:14.790Z,19.20
2023-05-14T19:00:43.615Z,19.20
2023-05-14T19:03:12.652Z,19.20
2023-05-14T19:05:41.351Z,19.20
2023-05-14T19:08:10.452Z,19.20
2023-05-14T19:10:38.993Z,19.20
2023-05-14T19:13:08.993Z,19.20
2023-05-14T19:15:41.119Z,19.20
2023-05-14T19:18:11.017Z,19.20
2023-05-14T19:20:39.514Z,19.20
2023-05-14T19:23:08.588Z,19.20
2023-05-14T19:25:37.135Z,19.20
2023-05-14T19:28:06.197Z,19.20
2023-05-14T19:30:34.814Z,19.20
2023-05-14T19:33:04.592Z,19.20
2023-05-14T19:35:33.358Z,19.20
2023-05-14T19:38:02.383Z,19.20
2023-05-14T19:40:30.946Z,19.20
2023-05-14T19:42:59.886Z,19.20
2023-05-14T19:45:28.603Z,19.20
2023-05-14T19:47:57.937Z,19.20
2023-05-14T19:50:26.575Z,19.20
2023-05-14T19:52:56.957Z,19.20
2023-05-14T19:55:25.981Z,19.20
2023-05-14T19:57:54.994Z,19.20
2023-05-14T20:00:24.232Z,19.20
2023-05-14T20:02:54.407Z,19.10
2023-05-14T20:05:23.032Z,19.20
2023-05-14T20:07:55.168Z,19.20
2023-05-14T20:10:24.848Z,19.10
2023-05-14T20:12:54.382Z,19.10
2023-05-14T20:15:23.488Z,19.10
2023-05-14T20:17:52.978Z,19.10
2023-05-14T20:20:21.669Z,19.10
2023-05-14T20:22:50.756Z,19.10
2023-05-14T20:25:19.334Z,19.10
2023-05-14T20:27:48.759Z,19.10
2023-05-14T20:30:17.476Z,19.10
2023-05-14T20:32:46.608Z,19.10
2023-05-14T20:35:15.209Z,19.10
2023-05-14T20:37:44.130Z,19.10
2023-05-14T20:40:13.057Z,19.10
2023-05-14T20:42:42.347Z,19.10
2023-05-14T20:45:11.848Z,19.10
2023-05-14T20:47:41.076Z,19.10
2023-05-14T20:50:10.056Z,19.10
2023-05-14T20:52:39.045Z,19.10
2023-05-14T20:57:37.677Z,19.10
2023-05-14T21:00:09.351Z,19.10
2023-05-14T21:02:38.719Z,19.10
2023-05-14T21:05:08.231Z,19.00
2023-05-14T21:07:37.751Z,19.00
2023-05-14T21:10:08.810Z,19.00
2023-05-14T21:12:37.839Z,19.10
2023-05-14T21:15:07.241Z,19.00
2023-05-14T21:17:36.278Z,19.00
2023-05-14T21:20:05.289Z,19.00
2023-05-14T21:22:34.225Z,19.10
2023-05-14T21:25:02.975Z,19.00
2023-05-14T21:27:32.355Z,19.00
2023-05-14T21:30:01.365Z,19.00
2023-05-14T21:32:30.240Z,19.00
2023-05-14T21:34:58.929Z,19.00
2023-05-14T21:37:27.895Z,19.00
2023-05-14T21:39:56.411Z,19.00
2023-05-14T21:42:25.658Z,19.00
2023-05-14T21:44:55.022Z,19.00
2023-05-14T21:47:23.955Z,19.00
2023-05-14T21:49:52.617Z,19.00
2023-05-14T21:52:21.508Z,19.00
2023-05-14T21:54:50.209Z,19.00
2023-05-14T21:57:19.077Z,19.00
2023-05-14T21:59:47.626Z,19.00
2023-05-14T22:02:16.656Z,19.00
2023-05-14T22:04:45.334Z,19.00
2023-05-14T22:07:14.385Z,19.00
2023-05-14T22:09:43.027Z,19.00
2023-05-14T22:12:12.314Z,19.00
2023-05-14T22:14:41.045Z,19.00
2023-05-14T22:17:09.936Z,19.00
2023-05-14T22:19:38.576Z,18.90
2023-05-14T22:22:07.466Z,18.90
2023-05-14T22:24:36.035Z,18.90
2023-05-14T22:27:05.320Z,18.90
2023-05-14T22:29:34.938Z,18.90
2023-05-14T22:32:08.547Z,18.90
2023-05-14T22:34:37.834Z,18.90
2023-05-14T22:37:06.737Z,19.00
2023-05-14T22:39:35.464Z,19.00
2023-05-14T22:42:04.815Z,19.00
2023-05-14T22:44:33.489Z,19.00
2023-05-14T22:47:02.936Z,18.90
2023-05-14T22:49:32.104Z,19.00
2023-05-14T22:52:01.585Z,19.00
2023-05-14T22:54:30.115Z,18.90
2023-05-14T22:56:59.033Z,18.90
2023-05-14T22:59:27.815Z,18.90
2023-05-14T23:01:56.821Z,18.90
2023-05-14T23:04:25.757Z,18.90
2023-05-14T23:06:54.911Z,18.90
2023-05-14T23:09:23.555Z,18.90
2023-05-14T23:11:52.456Z,18.90
2023-05-14T23:14:21.368Z,19.00
2023-05-14T23:16:50.404Z,18.90
2023-05-14T23:19:19.280Z,18.90
2023-05-14T23:21:48.695Z,18.90
2023-05-14T23:24:17.309Z,18.90
2023-05-14T23:26:47.009Z,18.90
2023-05-14T23:29:15.789Z,18.90
2023-05-14T23:31:44.784Z,18.90
2023-05-14T23:34:13.410Z,18.90
2023-05-14T23:36:42.868Z,18.90
2023-05-14T23:39:11.605Z,18.90
2023-05-14T23:41:40.491Z,18.90
2023-05-14T23:44:09.094Z,18.90
2023-05-14T23:46:38.040Z,18.90
2023-05-14T23:49:06.617Z,18.90
2023-05-14T23:51:36.869Z,18.90
2023-05-14T23:54:05.683Z,18.90
2023-05-14T23:56:34.663Z,18.90
2023-05-14T23:59:03.877Z,18.90
